createdAt,value
2023-05-16T00:01:05.991Z,1.42
2023-05-16T00:03:34.858Z,1.25
2023-05-16T00:06:03.566Z,1.08
2023-05-16T00:08:32.261Z,1.23
2023-05-16T00:11:01.553Z,1.10
2023-05-16T00:13:31.760Z,0.90
2023-05-16T00:16:02.629Z,0.88
2023-05-16T00:18:32.541Z,1.08
2023-05-16T00:21:01.771Z,1.00
2023-05-16T00:23:30.341Z,1.10
2023-05-16T00:25:58.878Z,0.90
2023-05-16T00:28:27.432Z,0.80
2023-05-16T00:30:56.071Z,0.82
2023-05-16T00:33:24.716Z,0.70
2023-05-16T00:35:54.803Z,0.82
2023-05-16T00:38:23.403Z,1.40
2023-05-16T00:40:51.927Z,0.98
2023-05-16T00:43:20.555Z,1.40
2023-05-16T00:45:49.101Z,1.30
2023-05-16T00:48:17.805Z,1.20
2023-05-16T00:50:46.613Z,1.33
2023-05-16T00:53:16.839Z,1.20
2023-05-16T00:55:46.187Z,1.42
2023-05-16T00:58:15.183Z,1.23
2023-05-16T01:00:43.795Z,1.33
2023-05-16T01:03:14.836Z,1.70
2023-05-16T01:05:43.575Z,1.25
2023-05-16T01:08:12.241Z,1.58
2023-05-16T01:10:50.642Z,1.90
2023-05-16T01:13:28.429Z,1.70
2023-05-16T01:16:06.141Z,2.05
2023-05-16T01:18:43.421Z,2.30
2023-05-16T01:21:17.551Z,2.10
2023-05-16T01:23:53.824Z,1.65
2023-05-16T01:26:26.680Z,1.60
2023-05-16T01:28:55.888Z,1.80
2023-05-16T01:31:25.301Z,1.67
2023-05-16T01:33:53.894Z,1.77
2023-05-16T01:36:27.243Z,1.75
2023-05-16T01:39:04.138Z,1.58
2023-05-16T01:41:42.522Z,1.95
2023-05-16T01:44:19.007Z,1.60
2023-05-16T01:46:50.264Z,2.10
2023-05-16T01:49:26.515Z,1.20
2023-05-16T01:52:01.471Z,1.95
2023-05-16T01:54:34.294Z,1.50
2023-05-16T01:57:08.386Z,1.90
2023-05-16T01:59:37.603Z,1.60
2023-05-16T02:02:06.264Z,2.00
2023-05-16T02:04:34.832Z,1.73
2023-05-16T02:07:03.541Z,1.80
2023-05-16T02:09:32.080Z,2.40
2023-05-16T02:12:00.894Z,1.67
2023-05-16T02:14:30.823Z,1.88
2023-05-16T02:16:59.883Z,2.15
2023-05-16T02:19:28.505Z,2.20
2023-05-16T02:21:57.280Z,1.70
2023-05-16T02:24:25.977Z,1.85
2023-05-16T02:26:54.538Z,2.03
2023-05-16T02:29:23.086Z,2.40
2023-05-16T02:31:53.042Z,1.88
2023-05-16T02:34:21.616Z,1.83
2023-05-16T02:36:50.626Z,1.23
2023-05-16T02:39:19.170Z,2.17
2023-05-16T02:41:47.698Z,1.83
2023-05-16T02:44:16.248Z,2.35
2023-05-16T02:46:44.958Z,2.08
2023-05-16T02:49:14.976Z,1.80
2023-05-16T02:51:43.538Z,1.70
2023-05-16T02:54:12.093Z,1.43
2023-05-16T02:56:40.601Z,1.85
2023-05-16T02:59:09.157Z,1.48
2023-05-16T03:01:37.768Z,1.67
2023-05-16T03:04:06.536Z,1.75
2023-05-16T03:06:36.510Z,2.20
2023-05-16T03:09:05.095Z,1.60
2023-05-16T03:11:33.612Z,1.90
2023-05-16T03:14:02.197Z,1.90
2023-05-16T03:16:30.894Z,1.63
2023-05-16T03:18:59.591Z,1.33
2023-05-16T03:21:28.239Z,2.13
2023-05-16T03:23:58.327Z,2.20
2023-05-16T03:26:27.585Z,2.00
2023-05-16T03:28:56.212Z,2.33
2023-05-16T03:31:24.818Z,2.38
2023-05-16T03:33:53.354Z,2.03
2023-05-16T03:36:24.330Z,1.73
2023-05-16T03:38:52.877Z,2.00
2023-05-16T03:41:22.819Z,1.80
2023-05-16T03:43:51.437Z,1.92
2023-05-16T03:46:20.130Z,1.33
2023-05-16T03:48:48.799Z,1.55
2023-05-16T03:51:17.352Z,1.50
2023-05-16T03:53:45.873Z,2.75
2023-05-16T03:56:14.408Z,2.00
2023-05-16T03:58:44.279Z,1.85
2023-05-16T04:01:12.809Z,2.80
2023-05-16T04:03:41.352Z,2.13
2023-05-16T04:06:10.007Z,2.40
2023-05-16T04:08:39.803Z,2.00
2023-05-16T04:11:08.424Z,2.10
2023-05-16T04:13:37.120Z,2.15
2023-05-16T04:16:07.699Z,2.35
2023-05-16T04:18:36.316Z,1.97
2023-05-16T04:21:05.388Z,2.03
2023-05-16T04:23:33.980Z,2.00
2023-05-16T04:26:04.735Z,1.73
2023-05-16T04:28:33.571Z,1.90
2023-05-16T04:31:02.220Z,2.35
2023-05-16T04:33:32.311Z,1.98
2023-05-16T04:36:01.553Z,2.17
2023-05-16T04:38:30.064Z,2.15
2023-05-16T04:40:58.584Z,2.00
2023-05-16T04:43:27.236Z,1.95
2023-05-16T04:45:55.907Z,2.03
2023-05-16T04:48:24.527Z,1.85
2023-05-16T04:50:54.438Z,2.20
2023-05-16T04:53:23.155Z,1.98
2023-05-16T04:55:51.688Z,2.50
2023-05-16T04:58:20.201Z,2.45
2023-05-16T05:00:48.754Z,2.30
2023-05-16T05:03:18.053Z,2.78
2023-05-16T05:05:47.865Z,1.63
2023-05-16T05:08:17.796Z,2.13
2023-05-16T05:10:46.342Z,2.00
2023-05-16T05:13:14.980Z,2.00
2023-05-16T05:15:43.518Z,2.10
2023-05-16T05:20:40.514Z,2.20
2023-05-16T05:23:09.048Z,2.37
2023-05-16T05:25:39.735Z,1.58
2023-05-16T05:28:08.293Z,1.65
2023-05-16T05:30:36.982Z,1.83
2023-05-16T05:33:05.612Z,1.98
2023-05-16T05:35:34.283Z,1.77
2023-05-16T05:38:02.838Z,2.22
2023-05-16T05:40:31.343Z,1.92
2023-05-16T05:43:01.277Z,1.27
2023-05-16T05:45:29.939Z,1.90
2023-05-16T05:47:58.786Z,2.10
2023-05-16T05:50:27.364Z,1.63
2023-05-16T05:52:57.076Z,1.70
2023-05-16T05:55:25.851Z,1.55
2023-05-16T05:57:54.752Z,1.67
2023-05-16T06:00:25.036Z,1.95
2023-05-16T06:02:53.758Z,1.98
2023-05-16T06:05:23.829Z,1.90
2023-05-16T06:07:52.483Z,1.77
2023-05-16T06:10:21.496Z,1.73
2023-05-16T06:12:50.169Z,2.43
2023-05-16T06:15:18.888Z,1.90
2023-05-16T06:17:49.099Z,1.52
2023-05-16T06:20:17.774Z,1.73
2023-05-16T06:22:46.300Z,1.60
2023-05-16T06:25:14.823Z,1.70
2023-05-16T06:27:43.337Z,1.77
2023-05-16T06:30:12.470Z,2.42
2023-05-16T06:32:41.530Z,1.80
2023-05-16T06:35:11.844Z,1.42
2023-05-16T06:37:42.745Z,1.40
2023-05-16T06:40:12.374Z,1.80
2023-05-16T06:42:40.955Z,1.40
2023-05-16T06:45:11.080Z,1.50
2023-05-16T06:47:39.713Z,1.47
2023-05-16T06:50:11.443Z,1.20
2023-05-16T06:52:40.649Z,1.10
2023-05-16T06:55:10.256Z,1.50
2023-05-16T06:57:38.954Z,1.55
2023-05-16T07:00:09.598Z,1.80
2023-05-16T07:02:38.332Z,1.55
2023-05-16T07:05:07.974Z,1.48
2023-05-16T07:07:37.925Z,1.50
2023-05-16T07:10:07.223Z,1.50
2023-05-16T07:12:36.958Z,1.40
2023-05-16T07:15:06.294Z,1.52
2023-05-16T07:17:34.902Z,1.00
2023-05-16T07:20:05.514Z,1.30
2023-05-16T07:22:34.285Z,1.13
2023-05-16T07:25:04.516Z,1.50
2023-05-16T07:27:33.160Z,1.35
2023-05-16T07:30:01.721Z,1.17
2023-05-16T07:32:30.381Z,1.57
2023-05-16T07:34:58.924Z,1.10
2023-05-16T07:37:31.202Z,1.40
2023-05-16T07:40:00.008Z,1.30
2023-05-16T07:42:29.927Z,1.10
2023-05-16T07:44:58.545Z,1.50
2023-05-16T07:47:27.225Z,1.20
2023-05-16T07:49:55.860Z,1.30
2023-05-16T07:52:24.398Z,1.20
2023-05-16T07:54:52.974Z,1.23
2023-05-16T07:57:23.966Z,1.40
2023-05-16T07:59:54.849Z,1.40
2023-05-16T08:02:24.750Z,1.60
2023-05-16T08:04:53.490Z,1.50
2023-05-16T08:07:22.038Z,1.30
2023-05-16T08:09:50.630Z,1.38
2023-05-16T08:12:19.404Z,1.38
2023-05-16T08:14:47.970Z,1.45
2023-05-16T08:17:17.889Z,1.23
2023-05-16T08:19:46.480Z,1.10
2023-05-16T08:22:15.101Z,1.15
2023-05-16T08:24:43.679Z,1.17
2023-05-16T08:27:12.373Z,1.50
2023-05-16T08:29:41.124Z,1.15
2023-05-16T08:32:11.384Z,1.42
2023-05-16T08:34:41.289Z,1.03
2023-05-16T08:37:10.439Z,1.50
2023-05-16T08:39:40.649Z,1.30
2023-05-16T08:42:09.989Z,1.02
2023-05-16T08:44:38.555Z,1.30
2023-05-16T08:47:13.989Z,1.05
2023-05-16T08:49:48.558Z,1.20
2023-05-16T08:52:21.975Z,0.93
2023-05-16T08:55:01.928Z,1.10
2023-05-16T08:57:38.792Z,1.05
2023-05-16T09:00:12.196Z,1.15
2023-05-16T09:02:41.690Z,1.00
2023-05-16T09:05:14.666Z,0.95
2023-05-16T09:07:44.196Z,1.10
2023-05-16T09:10:13.869Z,1.10
2023-05-16T09:12:43.511Z,1.10
2023-05-16T09:15:13.029Z,0.80
2023-05-16T09:17:44.828Z,0.82
2023-05-16T09:20:17.680Z,1.10
2023-05-16T09:22:53.813Z,1.00
2023-05-16T09:25:30.200Z,1.17
2023-05-16T09:28:02.324Z,1.10
2023-05-16T09:30:34.266Z,0.90
2023-05-16T09:33:03.742Z,0.90
2023-05-16T09:38:05.513Z,0.90
2023-05-16T09:40:34.127Z,0.90
2023-05-16T09:43:06.889Z,1.00
2023-05-16T09:45:36.358Z,1.00
2023-05-16T09:48:07.564Z,1.10
2023-05-16T09:50:39.102Z,1.20
2023-05-16T09:53:07.920Z,0.90
2023-05-16T09:55:36.583Z,1.02
2023-05-16T09:58:05.167Z,1.00
2023-05-16T10:00:35.156Z,1.10
2023-05-16T10:03:05.920Z,0.73
2023-05-16T10:05:37.101Z,0.88
2023-05-16T10:08:06.289Z,1.02
2023-05-16T10:10:39.569Z,1.00
2023-05-16T10:13:12.444Z,1.25
2023-05-16T10:15:42.348Z,1.02
2023-05-16T10:18:13.474Z,0.90
2023-05-16T10:20:45.569Z,0.90
2023-05-16T10:23:19.669Z,1.33
2023-05-16T10:25:49.535Z,1.25
2023-05-16T10:28:18.441Z,1.05
2023-05-16T10:30:48.353Z,1.00
2023-05-16T10:33:18.988Z,1.00
2023-05-16T10:35:48.965Z,0.82
2023-05-16T10:38:20.281Z,1.30
2023-05-16T10:40:49.822Z,1.17
2023-05-16T10:43:26.818Z,1.20
2023-05-16T10:46:03.527Z,1.00
2023-05-16T10:48:33.715Z,1.10
2023-05-16T10:51:04.865Z,0.60
2023-05-16T10:53:34.796Z,0.68
2023-05-16T10:56:11.146Z,0.70
2023-05-16T10:58:48.093Z,1.00
2023-05-16T11:01:21.210Z,1.08
2023-05-16T11:04:12.618Z,0.83
2023-05-16T11:07:04.493Z,0.90
2023-05-16T11:09:33.083Z,0.90
2023-05-16T11:12:04.021Z,1.10
2023-05-16T11:14:39.541Z,0.93
2023-05-16T11:17:13.533Z,0.63
2023-05-16T11:19:44.994Z,0.80
2023-05-16T11:22:25.783Z,0.70
2023-05-16T11:24:57.307Z,0.80
2023-05-16T11:27:28.631Z,1.15
2023-05-16T11:30:03.300Z,0.80
2023-05-16T11:32:35.302Z,0.60
2023-05-16T11:35:04.781Z,1.00
2023-05-16T11:37:38.536Z,0.90
2023-05-16T11:40:09.825Z,0.60
2023-05-16T11:42:39.804Z,0.70
2023-05-16T11:45:09.507Z,0.75
2023-05-16T11:47:40.090Z,1.10
2023-05-16T11:50:12.401Z,0.80
2023-05-16T11:52:44.578Z,1.20
2023-05-16T11:55:21.423Z,0.80
2023-05-16T11:57:54.033Z,0.93
2023-05-16T12:00:26.649Z,1.00
2023-05-16T12:03:01.582Z,0.82
2023-05-16T12:05:32.085Z,0.80
2023-05-16T12:08:02.807Z,0.80
2023-05-16T12:10:35.095Z,1.00
2023-05-16T12:13:04.900Z,0.70
2023-05-16T12:15:34.384Z,0.90
2023-05-16T12:18:03.544Z,0.70
2023-05-16T12:20:32.435Z,0.57
2023-05-16T12:23:02.421Z,0.88
2023-05-16T12:25:32.887Z,0.80
2023-05-16T12:28:03.580Z,0.47
2023-05-16T12:30:33.293Z,0.80
2023-05-16T12:33:06.753Z,0.73
2023-05-16T12:35:39.074Z,0.60
2023-05-16T12:38:10.613Z,0.50
2023-05-16T12:40:40.594Z,0.55
2023-05-16T12:43:15.530Z,0.47
2023-05-16T12:45:50.505Z,0.60
2023-05-16T12:48:19.182Z,0.57
2023-05-16T12:50:48.886Z,0.50
2023-05-16T12:53:20.061Z,0.60
2023-05-16T12:55:48.798Z,0.77
2023-05-16T12:58:18.477Z,0.80
2023-05-16T13:00:47.071Z,0.98
2023-05-16T13:03:15.688Z,0.90
2023-05-16T13:05:44.881Z,0.60
2023-05-16T13:08:13.441Z,0.52
2023-05-16T13:10:43.311Z,0.63
2023-05-16T13:13:13.686Z,0.80
2023-05-16T13:15:45.714Z,0.80
2023-05-16T13:18:14.426Z,0.70
2023-05-16T13:20:43.647Z,0.95
2023-05-16T13:23:12.237Z,0.50
2023-05-16T13:25:42.201Z,0.70
2023-05-16T13:28:11.041Z,0.60
2023-05-16T13:30:40.137Z,0.70
2023-05-16T13:33:08.808Z,0.50
2023-05-16T13:35:38.494Z,0.80
2023-05-16T13:38:07.098Z,0.90
2023-05-16T13:40:36.663Z,0.90
2023-05-16T13:43:06.869Z,0.70
2023-05-16T13:45:35.523Z,0.80
2023-05-16T13:48:04.618Z,0.50
2023-05-16T13:50:33.985Z,0.90
2023-05-16T13:53:02.821Z,0.80
2023-05-16T13:55:31.528Z,0.77
2023-05-16T13:58:00.116Z,0.85
2023-05-16T14:00:44.618Z,0.73
2023-05-16T14:03:14.618Z,0.80
2023-05-16T14:05:43.278Z,0.93
2023-05-16T14:08:11.863Z,1.00
2023-05-16T14:10:40.477Z,0.80
2023-05-16T14:13:09.049Z,1.00
2023-05-16T14:15:38.936Z,0.60
2023-05-16T14:18:07.706Z,0.85
2023-05-16T14:20:36.397Z,0.70
2023-05-16T14:23:04.993Z,1.07
2023-05-16T14:25:33.546Z,0.90
2023-05-16T14:28:02.099Z,0.90
2023-05-16T14:30:31.628Z,0.98
2023-05-16T14:33:02.304Z,0.90
2023-05-16T14:35:31.308Z,0.77
2023-05-16T14:37:59.959Z,0.70
2023-05-16T14:40:28.499Z,0.88
2023-05-16T14:42:57.054Z,0.90
2023-05-16T14:45:25.735Z,0.90
2023-05-16T14:47:54.502Z,1.13
2023-05-16T14:50:24.580Z,0.93
2023-05-16T14:52:53.730Z,0.82
2023-05-16T14:55:22.926Z,0.95
2023-05-16T14:57:58.920Z,1.10
2023-05-16T15:00:31.509Z,0.95
2023-05-16T15:03:00.255Z,1.10
2023-05-16T15:05:30.496Z,1.00
2023-05-16T15:07:59.126Z,1.10
2023-05-16T15:10:27.980Z,1.03
2023-05-16T15:12:56.625Z,0.87
2023-05-16T15:15:25.164Z,0.90
2023-05-16T15:17:54.832Z,0.93
2023-05-16T15:20:23.606Z,1.10
2023-05-16T15:22:53.532Z,0.90
2023-05-16T15:25:22.202Z,1.30
2023-05-16T15:27:51.206Z,1.23
2023-05-16T15:30:19.744Z,0.93
2023-05-16T15:32:49.295Z,1.33
2023-05-16T15:35:18.106Z,1.02
2023-05-16T15:37:46.684Z,1.10
2023-05-16T15:40:16.984Z,1.20
2023-05-16T15:42:45.589Z,1.10
2023-05-16T15:45:14.421Z,1.10
2023-05-16T15:47:43.335Z,1.50
2023-05-16T15:50:12.630Z,1.10
2023-05-16T15:52:41.385Z,0.90
2023-05-16T15:55:11.965Z,1.00
2023-05-16T15:57:43.863Z,1.00
2023-05-16T16:00:13.585Z,1.23
2023-05-16T16:02:44.965Z,1.10
2023-05-16T16:05:13.574Z,0.93
2023-05-16T16:07:42.163Z,1.10
2023-05-16T16:10:12.033Z,1.00
2023-05-16T16:12:42.023Z,0.90
2023-05-16T16:15:12.123Z,0.93
2023-05-16T16:17:40.729Z,0.95
2023-05-16T16:20:10.125Z,1.10
2023-05-16T16:22:38.680Z,1.35
2023-05-16T16:25:08.202Z,1.20
2023-05-16T16:27:36.738Z,1.13
2023-05-16T16:30:10.297Z,1.40
2023-05-16T16:32:39.114Z,1.10
2023-05-16T16:35:08.172Z,1.00
2023-05-16T16:37:36.909Z,0.90
2023-05-16T16:40:09.189Z,1.02
2023-05-16T16:42:40.478Z,1.20
2023-05-16T16:45:11.486Z,1.10
2023-05-16T16:47:40.580Z,0.70
2023-05-16T16:50:10.917Z,0.93
2023-05-16T16:52:39.521Z,1.00
2023-05-16T16:55:08.945Z,1.40
2023-05-16T16:57:37.559Z,0.90
2023-05-16T17:00:08.906Z,1.08
2023-05-16T17:02:39.045Z,1.40
2023-05-16T17:05:08.771Z,0.98
2023-05-16T17:07:37.373Z,1.02
2023-05-16T17:10:07.950Z,1.27
2023-05-16T17:12:40.724Z,0.80
2023-05-16T17:15:10.619Z,1.48
2023-05-16T17:17:40.614Z,1.50
2023-05-16T17:20:12.647Z,1.10
2023-05-16T17:22:41.401Z,1.13
2023-05-16T17:25:10.892Z,0.50
2023-05-16T17:27:40.739Z,1.30
2023-05-16T17:30:11.648Z,1.20
2023-05-16T17:32:41.580Z,0.80
2023-05-16T17:35:10.659Z,1.10
2023-05-16T17:37:39.344Z,1.20
2023-05-16T17:40:10.638Z,0.73
2023-05-16T17:42:39.168Z,1.23
2023-05-16T17:45:09.033Z,1.13
2023-05-16T17:47:37.901Z,1.05
2023-05-16T17:50:10.327Z,0.85
2023-05-16T17:52:40.471Z,1.02
2023-05-16T17:55:10.915Z,0.98
2023-05-16T17:57:40.034Z,1.00
2023-05-16T18:00:09.753Z,1.17
2023-05-16T18:02:38.813Z,1.10
2023-05-16T18:05:10.372Z,1.10
2023-05-16T18:07:39.004Z,0.97
2023-05-16T18:10:08.745Z,1.08
2023-05-16T18:12:38.694Z,0.90
2023-05-16T18:15:08.929Z,0.73
2023-05-16T18:17:37.779Z,1.08
2023-05-16T18:20:11.037Z,1.20
2023-05-16T18:22:40.291Z,0.63
2023-05-16T18:25:11.538Z,0.90
2023-05-16T18:27:40.688Z,1.00
2023-05-16T18:30:10.748Z,0.90
2023-05-16T18:32:39.542Z,0.90
2023-05-16T18:35:10.173Z,0.80
2023-05-16T18:37:38.814Z,0.70
2023-05-16T18:40:08.891Z,0.73
2023-05-16T18:42:37.481Z,0.82
2023-05-16T18:45:06.678Z,0.90
2023-05-16T18:47:35.556Z,0.73
2023-05-16T18:50:04.762Z,0.77
2023-05-16T18:52:36.029Z,0.88
2023-05-16T18:55:04.919Z,0.90
2023-05-16T18:57:33.816Z,0.77
2023-05-16T19:00:02.434Z,0.90
2023-05-16T19:02:41.374Z,0.47
2023-05-16T19:05:11.422Z,0.80
2023-05-16T19:07:41.605Z,1.10
2023-05-16T19:10:10.772Z,0.75
2023-05-16T19:12:39.348Z,0.90
2023-05-16T19:15:09.286Z,0.82
2023-05-16T19:17:38.836Z,0.65
2023-05-16T19:20:09.326Z,0.70
2023-05-16T19:22:38.032Z,1.25
2023-05-16T19:25:09.101Z,0.60
2023-05-16T19:27:37.786Z,0.73
2023-05-16T19:30:07.569Z,1.08
2023-05-16T19:32:36.254Z,1.00
2023-05-16T19:35:05.495Z,0.88
2023-05-16T19:37:34.119Z,0.70
2023-05-16T19:40:02.851Z,1.20
2023-05-16T19:42:32.798Z,0.70
2023-05-16T19:45:01.368Z,0.88
2023-05-16T19:47:30.133Z,1.23
2023-05-16T19:49:58.745Z,1.00
2023-05-16T19:52:27.383Z,0.63
2023-05-16T19:54:55.956Z,0.65
2023-05-16T19:57:24.574Z,0.98
2023-05-16T19:59:54.564Z,1.10
2023-05-16T20:02:24.516Z,1.15
2023-05-16T20:04:53.985Z,1.00
2023-05-16T20:07:23.145Z,1.67
2023-05-16T20:09:52.018Z,0.98
2023-05-16T20:12:20.642Z,1.57
2023-05-16T20:14:49.210Z,1.25
2023-05-16T20:17:19.127Z,1.40
2023-05-16T20:19:47.865Z,1.10
2023-05-16T20:22:17.108Z,0.93
2023-05-16T20:24:45.735Z,0.87
2023-05-16T20:27:14.266Z,1.00
2023-05-16T20:29:42.848Z,0.90
2023-05-16T20:32:11.483Z,0.80
2023-05-16T20:34:41.876Z,0.82
2023-05-16T20:37:10.437Z,0.90
2023-05-16T20:39:39.079Z,1.03
2023-05-16T20:42:10.874Z,0.90
2023-05-16T20:44:39.531Z,0.80
2023-05-16T20:47:08.821Z,0.70
2023-05-16T20:49:39.750Z,0.88
2023-05-16T20:52:09.917Z,0.88
2023-05-16T20:54:38.491Z,0.80
2023-05-16T20:57:07.533Z,1.02
2023-05-16T20:59:38.717Z,0.77
2023-05-16T21:02:09.763Z,1.00
2023-05-16T21:04:38.477Z,1.10
2023-05-16T21:07:08.897Z,1.05
2023-05-16T21:09:38.046Z,1.08
2023-05-16T21:12:07.319Z,1.10
2023-05-16T21:14:36.526Z,0.82
2023-05-16T21:17:05.334Z,1.35
2023-05-16T21:19:35.450Z,1.05
2023-05-16T21:22:04.268Z,0.73
2023-05-16T21:24:35.635Z,0.95
2023-05-16T21:27:04.744Z,0.60
2023-05-16T21:29:33.331Z,0.70
2023-05-16T21:32:02.005Z,0.77
2023-05-16T21:34:30.672Z,0.90
2023-05-16T21:36:59.970Z,1.10
2023-05-16T21:39:28.580Z,0.68
2023-05-16T21:41:58.506Z,1.13
2023-05-16T21:44:27.081Z,0.90
2023-05-16T21:46:55.609Z,0.90
2023-05-16T21:49:24.180Z,0.60
2023-05-16T21:51:52.795Z,0.50
2023-05-16T21:54:21.368Z,1.10
2023-05-16T21:56:49.921Z,0.95
2023-05-16T21:59:19.857Z,0.82
2023-05-16T22:01:48.433Z,0.70
2023-05-16T22:04:17.256Z,0.65
2023-05-16T22:06:45.920Z,0.50
2023-05-16T22:09:14.482Z,0.60
2023-05-16T22:11:43.044Z,0.52
2023-05-16T22:14:11.651Z,0.70
2023-05-16T22:16:41.706Z,0.55
2023-05-16T22:19:10.293Z,0.60
2023-05-16T22:21:38.868Z,0.60
2023-05-16T22:24:08.079Z,0.70
2023-05-16T22:26:36.725Z,0.90
2023-05-16T22:29:05.274Z,0.68
2023-05-16T22:31:33.846Z,0.70
2023-05-16T22:34:03.916Z,0.68
2023-05-16T22:36:32.581Z,0.80
2023-05-16T22:39:01.205Z,0.73
2023-05-16T22:41:29.795Z,0.90
2023-05-16T22:43:58.428Z,0.70
2023-05-16T22:46:26.985Z,0.70
2023-05-16T22:48:55.578Z,0.45
2023-05-16T22:51:25.631Z,0.60
2023-05-16T22:53:54.197Z,0.50
2023-05-16T22:56:22.754Z,0.68
2023-05-16T22:58:51.456Z,0.40
2023-05-16T23:01:20.056Z,0.50
2023-05-16T23:03:48.793Z,0.90
2023-05-16T23:06:17.395Z,0.60
2023-05-16T23:08:47.289Z,0.93
2023-05-16T23:11:15.838Z,0.70
2023-05-16T23:13:44.417Z,0.90
2023-05-16T23:16:12.991Z,0.90
2023-05-16T23:18:41.726Z,1.10
2023-05-16T23:21:10.648Z,0.60
2023-05-16T23:23:39.363Z,0.63
2023-05-16T23:26:09.600Z,1.17
2023-05-16T23:28:38.316Z,0.57
2023-05-16T23:31:07.150Z,0.82
2023-05-16T23:33:35.903Z,0.65
2023-05-16T23:36:04.837Z,0.60
2023-05-16T23:38:33.550Z,0.70
2023-05-16T23:41:02.269Z,0.90
2023-05-16T23:43:32.875Z,0.90
2023-05-16T23:46:02.430Z,0.55
2023-05-16T23:48:31.497Z,1.05
2023-05-16T23:51:00.478Z,0.80
2023-05-16T23:53:31.181Z,0.68
2023-05-16T23:56:00.395Z,0.52
2023-05-16T23:58:29.543Z,0.90
